NSZ5PF LEAL-ENBR
Flight info
| Callsign | NSZ5PF |
|---|---|
| Flight time | N/A |
| Altitude | 36000 |
| Route | CATON N733 CJN L150 RBO DCT OSTIX N867 BLV P87 BISKA DCT BADRU DCT BELEN DCT DIDIG UP87 TERPO DCT RINSO DCT EKRAS UN867 AVANT L980 MID UM185 DIGSU P5 BUZDE DCT LAMRO DCT NIVUN DCT ALUVA |
| Aircraft | B738/M-SDE2E3FGHIRWXY/LB1 |
Departure
| Time | 2026-04-29 18:53 |
|---|---|
| Airport | Alicante-Elche Miguel Hernández Airport (LEAL) |
Arrival
| Time | N/A |
|---|---|
| Airport | Bergen Airport, Flesland (ENBR) |
| Time | Latitude | Longitude | Altitude | Speed | Heading |
|---|---|---|---|---|---|
| 2026-04-29 18:46 | 38.28464 | -0.54981 | 75 ft | 0 kts | 189° |
| 2026-04-29 18:46 | 38.28440 | -0.54986 | 75 ft | 4 kts | 191° |
| 2026-04-29 18:47 | 38.28418 | -0.55016 | 76 ft | 4 kts | 258° |
| 2026-04-29 18:47 | 38.28420 | -0.55053 | 77 ft | 5 kts | 278° |
| 2026-04-29 18:47 | 38.28424 | -0.55085 | 79 ft | 3 kts | 280° |
| 2026-04-29 18:47 | 38.28431 | -0.55134 | 81 ft | 7 kts | 280° |
| 2026-04-29 18:48 | 38.28445 | -0.55240 | 83 ft | 16 kts | 279° |
| 2026-04-29 18:48 | 38.28465 | -0.55386 | 90 ft | 14 kts | 279° |
| 2026-04-29 18:48 | 38.28456 | -0.55488 | 94 ft | 10 kts | 238° |
| 2026-04-29 18:48 | 38.28413 | -0.55568 | 96 ft | 10 kts | 235° |
| 2026-04-29 18:49 | 38.28377 | -0.55642 | 97 ft | 11 kts | 255° |
| 2026-04-29 18:49 | 38.28386 | -0.55753 | 99 ft | 12 kts | 280° |
| 2026-04-29 18:49 | 38.28403 | -0.55873 | 103 ft | 16 kts | 279° |
| 2026-04-29 18:49 | 38.28427 | -0.56045 | 107 ft | 23 kts | 279° |
| 2026-04-29 18:50 | 38.28453 | -0.56236 | 111 ft | 20 kts | 281° |
| 2026-04-29 18:50 | 38.28476 | -0.56395 | 115 ft | 16 kts | 279° |
| 2026-04-29 18:50 | 38.28495 | -0.56537 | 120 ft | 17 kts | 279° |
| 2026-04-29 18:50 | 38.28520 | -0.56710 | 123 ft | 21 kts | 279° |
| 2026-04-29 18:51 | 38.28543 | -0.56877 | 130 ft | 9 kts | 279° |
| 2026-04-29 18:51 | 38.28517 | -0.56939 | 132 ft | 8 kts | 184° |
| 2026-04-29 18:51 | 38.28461 | -0.56938 | 131 ft | 4 kts | 189° |
| 2026-04-29 18:51 | 38.28433 | -0.56949 | 132 ft | 6 kts | 197° |
| 2026-04-29 18:52 | 38.28390 | -0.56963 | 132 ft | 4 kts | 176° |
| 2026-04-29 18:52 | 38.28371 | -0.56923 | 131 ft | 8 kts | 101° |
| 2026-04-29 18:52 | 38.28337 | -0.56678 | 122 ft | 60 kts | 99° |
| 2026-04-29 18:52 | 38.28222 | -0.55849 | 100 ft | 126 kts | 99° |
| 2026-04-29 18:53 | 38.28036 | -0.54515 | 82 ft | 177 kts | 99° |
| 2026-04-29 18:53 | 38.27878 | -0.52985 | 621 ft | 183 kts | 97° |
| 2026-04-29 18:53 | 38.27629 | -0.51365 | 1215 ft | 192 kts | 102° |
| 2026-04-29 18:53 | 38.27478 | -0.49676 | 1848 ft | 197 kts | 81° |
| 2026-04-29 18:54 | 38.28129 | -0.48074 | 2071 ft | 223 kts | 45° |
| 2026-04-29 18:54 | 38.29502 | -0.47336 | 2907 ft | 217 kts | 9° |
| 2026-04-29 18:54 | 38.31105 | -0.47289 | 3224 ft | 240 kts | 355° |
| 2026-04-29 18:54 | 38.32709 | -0.47925 | 3810 ft | 254 kts | 331° |
| 2026-04-29 18:55 | 38.34014 | -0.49511 | 4265 ft | 271 kts | 303° |
| 2026-04-29 18:55 | 38.34959 | -0.51611 | 5083 ft | 273 kts | 296° |
| 2026-04-29 18:55 | 38.35878 | -0.53711 | 5843 ft | 276 kts | 302° |
| 2026-04-29 18:55 | 38.37066 | -0.55661 | 6609 ft | 280 kts | 310° |
| 2026-04-29 18:56 | 38.38356 | -0.57488 | 7455 ft | 279 kts | 309° |
| 2026-04-29 18:56 | 38.39617 | -0.59392 | 8080 ft | 286 kts | 307° |
| 2026-04-29 18:56 | 38.40875 | -0.61328 | 8835 ft | 288 kts | 307° |
| 2026-04-29 18:56 | 38.42153 | -0.63301 | 9549 ft | 290 kts | 307° |
| 2026-04-29 18:57 | 38.43427 | -0.65272 | 10219 ft | 294 kts | 306° |
| 2026-04-29 18:57 | 38.44752 | -0.67329 | 10611 ft | 309 kts | 306° |
| 2026-04-29 18:57 | 38.46163 | -0.69523 | 10983 ft | 324 kts | 306° |
| 2026-04-29 18:57 | 38.47619 | -0.71786 | 11327 ft | 339 kts | 307° |
| 2026-04-29 18:58 | 38.49158 | -0.74178 | 11662 ft | 355 kts | 306° |
| 2026-04-29 18:58 | 38.50741 | -0.76638 | 11977 ft | 369 kts | 307° |
| 2026-04-29 18:58 | 38.52405 | -0.79226 | 12281 ft | 384 kts | 306° |
| 2026-04-29 18:58 | 38.54221 | -0.81840 | 12567 ft | 400 kts | 313° |
| 2026-04-29 18:59 | 38.56344 | -0.84185 | 13186 ft | 406 kts | 319° |
| 2026-04-29 18:59 | 38.58626 | -0.86328 | 13821 ft | 410 kts | 322° |
| 2026-04-29 18:59 | 38.60950 | -0.88411 | 14441 ft | 413 kts | 322° |
| 2026-04-29 18:59 | 38.63304 | -0.90543 | 15088 ft | 416 kts | 322° |
| 2026-04-29 19:00 | 38.65647 | -0.92684 | 15676 ft | 419 kts | 322° |
| 2026-04-29 19:00 | 38.68045 | -0.94883 | 16289 ft | 422 kts | 322° |
| 2026-04-29 19:00 | 38.70435 | -0.97077 | 16849 ft | 426 kts | 322° |
| 2026-04-29 19:00 | 38.72835 | -0.99281 | 17431 ft | 429 kts | 322° |
| 2026-04-29 19:01 | 38.75275 | -1.01520 | 18005 ft | 432 kts | 322° |
| 2026-04-29 19:01 | 38.77714 | -1.03759 | 18540 ft | 436 kts | 322° |
| 2026-04-29 19:01 | 38.80177 | -1.06020 | 19091 ft | 439 kts | 321° |
| 2026-04-29 19:01 | 38.82676 | -1.08316 | 19629 ft | 442 kts | 321° |
| 2026-04-29 19:02 | 38.85165 | -1.10603 | 20148 ft | 445 kts | 321° |
| 2026-04-29 19:02 | 38.87696 | -1.12931 | 20698 ft | 447 kts | 321° |
| 2026-04-29 19:02 | 38.90203 | -1.15237 | 21207 ft | 450 kts | 321° |
| 2026-04-29 19:02 | 38.92784 | -1.17615 | 21675 ft | 454 kts | 321° |
| 2026-04-29 19:03 | 38.95326 | -1.19959 | 22169 ft | 456 kts | 321° |
| 2026-04-29 19:03 | 38.97924 | -1.22359 | 22655 ft | 459 kts | 321° |
| 2026-04-29 19:03 | 39.00518 | -1.24756 | 23139 ft | 461 kts | 321° |
| 2026-04-29 19:03 | 39.03104 | -1.27149 | 23553 ft | 465 kts | 321° |
| 2026-04-29 19:04 | 39.05724 | -1.29575 | 24054 ft | 467 kts | 321° |
| 2026-04-29 19:04 | 39.08377 | -1.32035 | 24484 ft | 470 kts | 321° |
| 2026-04-29 19:04 | 39.11042 | -1.34509 | 24980 ft | 471 kts | 320° |
| 2026-04-29 19:04 | 39.13731 | -1.37007 | 25379 ft | 473 kts | 320° |
| 2026-04-29 19:05 | 39.16370 | -1.39461 | 25824 ft | 473 kts | 320° |
| 2026-04-29 19:05 | 39.19018 | -1.41923 | 26463 ft | 469 kts | 320° |
| 2026-04-29 19:05 | 39.21668 | -1.44389 | 27043 ft | 466 kts | 320° |
| 2026-04-29 19:05 | 39.24285 | -1.46825 | 27653 ft | 462 kts | 320° |
| 2026-04-29 19:06 | 39.26853 | -1.49216 | 28333 ft | 455 kts | 320° |
| 2026-04-29 19:06 | 39.29399 | -1.51593 | 28885 ft | 452 kts | 319° |
| 2026-04-29 19:06 | 39.34478 | -1.56368 | 29482 ft | 455 kts | 319° |
| 2026-04-29 19:07 | 39.37045 | -1.58794 | 29667 ft | 459 kts | 319° |
| 2026-04-29 19:07 | 39.38775 | -1.60424 | 29776 ft | 462 kts | 319° |
| 2026-04-29 19:07 | 39.42262 | -1.63698 | 30082 ft | 466 kts | 319° |
| 2026-04-29 19:07 | 39.44847 | -1.66120 | 30638 ft | 461 kts | 319° |
| 2026-04-29 19:08 | 39.47438 | -1.68546 | 31253 ft | 455 kts | 318° |
| 2026-04-29 19:08 | 39.50008 | -1.70955 | 31834 ft | 449 kts | 318° |
| 2026-04-29 19:08 | 39.52501 | -1.73298 | 32242 ft | 448 kts | 318° |
| 2026-04-29 19:08 | 39.55049 | -1.75701 | 32511 ft | 450 kts | 318° |
| 2026-04-29 19:09 | 39.57569 | -1.78083 | 32825 ft | 450 kts | 318° |
| 2026-04-29 19:09 | 39.60083 | -1.80459 | 33295 ft | 447 kts | 317° |
| 2026-04-29 19:09 | 39.62581 | -1.82821 | 33774 ft | 444 kts | 317° |
| 2026-04-29 19:09 | 39.65057 | -1.85163 | 33982 ft | 445 kts | 317° |
| 2026-04-29 19:10 | 39.67554 | -1.87534 | 33986 ft | 448 kts | 317° |
| 2026-04-29 19:10 | 39.72572 | -1.92298 | 33988 ft | 445 kts | 317° |
| 2026-04-29 19:11 | 39.77537 | -1.97021 | 33986 ft | 446 kts | 317° |
| 2026-04-29 19:11 | 39.82555 | -2.01802 | 33989 ft | 448 kts | 317° |
| 2026-04-29 19:12 | 39.87593 | -2.06610 | 33989 ft | 449 kts | 317° |
| 2026-04-29 19:12 | 39.92618 | -2.11413 | 33981 ft | 450 kts | 317° |
| 2026-04-29 19:13 | 39.97655 | -2.16234 | 33981 ft | 450 kts | 317° |
| 2026-04-29 19:13 | 40.02686 | -2.21060 | 33977 ft | 449 kts | 317° |
| 2026-04-29 19:14 | 40.07715 | -2.25893 | 33977 ft | 451 kts | 317° |
| 2026-04-29 19:14 | 40.12759 | -2.30749 | 33967 ft | 450 kts | 317° |
| 2026-04-29 19:15 | 40.17786 | -2.35598 | 33968 ft | 450 kts | 317° |
| 2026-04-29 19:15 | 40.22800 | -2.40445 | 33972 ft | 451 kts | 317° |
| 2026-04-29 19:16 | 40.27867 | -2.45353 | 33959 ft | 452 kts | 316° |
| 2026-04-29 19:16 | 40.32909 | -2.50246 | 33959 ft | 453 kts | 316° |
| 2026-04-29 19:17 | 40.37732 | -2.55428 | 33956 ft | 446 kts | 309° |
| 2026-04-29 19:17 | 40.42023 | -2.61214 | 33952 ft | 443 kts | 306° |
| 2026-04-29 19:18 | 40.46186 | -2.67247 | 33951 ft | 443 kts | 304° |
| 2026-04-29 19:18 | 40.50295 | -2.73260 | 33946 ft | 446 kts | 304° |
| 2026-04-29 19:19 | 40.54418 | -2.79280 | 33950 ft | 445 kts | 304° |
| 2026-04-29 19:19 | 40.58563 | -2.85321 | 33946 ft | 444 kts | 304° |
| 2026-04-29 19:20 | 40.62696 | -2.91349 | 33946 ft | 447 kts | 304° |
| 2026-04-29 19:20 | 40.66848 | -2.97412 | 33940 ft | 448 kts | 304° |
| 2026-04-29 19:21 | 40.71022 | -3.03515 | 33945 ft | 448 kts | 304° |
| 2026-04-29 19:21 | 40.75176 | -3.09597 | 33931 ft | 450 kts | 304° |
| 2026-04-29 19:22 | 40.79435 | -3.15667 | 33933 ft | 455 kts | 308° |
| 2026-04-29 19:22 | 40.81847 | -3.18360 | 33929 ft | 465 kts | 319° |
| 2026-04-29 19:22 | 40.84717 | -3.20421 | 33925 ft | 474 kts | 331° |
| 2026-04-29 19:22 | 40.87906 | -3.21734 | 33947 ft | 485 kts | 342° |
| 2026-04-29 19:23 | 40.91216 | -3.22446 | 33946 ft | 493 kts | 348° |
| 2026-04-29 19:23 | 40.98187 | -3.22346 | 33928 ft | 502 kts | 2° |
| 2026-04-29 19:24 | 41.05045 | -3.20834 | 33948 ft | 503 kts | 7° |
| 2026-04-29 19:24 | 41.11934 | -3.19033 | 33955 ft | 503 kts | 7° |
| 2026-04-29 19:25 | 41.18785 | -3.17304 | 33964 ft | 503 kts | 7° |
| 2026-04-29 19:25 | 41.25670 | -3.15658 | 33960 ft | 502 kts | 7° |
| 2026-04-29 19:26 | 41.32551 | -3.14070 | 33965 ft | 503 kts | 7° |
| 2026-04-29 19:26 | 41.39436 | -3.12503 | 33960 ft | 503 kts | 6° |
| 2026-04-29 19:27 | 41.46257 | -3.10953 | 33954 ft | 500 kts | 7° |
| 2026-04-29 19:27 | 41.53106 | -3.09393 | 33956 ft | 499 kts | 7° |
| 2026-04-29 19:28 | 41.59941 | -3.07844 | 33961 ft | 500 kts | 7° |
| 2026-04-29 19:28 | 41.66783 | -3.06291 | 33957 ft | 499 kts | 7° |
| 2026-04-29 19:29 | 41.73613 | -3.04737 | 33958 ft | 498 kts | 7° |
| 2026-04-29 19:29 | 41.80454 | -3.03172 | 33953 ft | 499 kts | 7° |
| 2026-04-29 19:30 | 41.87228 | -3.01608 | 33969 ft | 496 kts | 7° |
| 2026-04-29 19:30 | 41.94031 | -3.00034 | 33970 ft | 497 kts | 7° |
| 2026-04-29 19:31 | 42.00851 | -2.98455 | 33975 ft | 497 kts | 8° |
| 2026-04-29 19:31 | 42.07607 | -2.96889 | 33977 ft | 494 kts | 8° |
| 2026-04-29 19:32 | 42.14428 | -2.95302 | 33984 ft | 496 kts | 8° |
| 2026-04-29 19:32 | 42.21218 | -2.93718 | 33966 ft | 495 kts | 8° |
| 2026-04-29 19:33 | 42.27951 | -2.92147 | 33962 ft | 496 kts | 8° |
| 2026-04-29 19:33 | 42.34734 | -2.90561 | 33957 ft | 496 kts | 8° |
| 2026-04-29 19:34 | 42.41544 | -2.88986 | 33928 ft | 497 kts | 7° |
| 2026-04-29 19:34 | 42.48412 | -2.88140 | 33913 ft | 496 kts | 359° |
| 2026-04-29 19:35 | 42.55247 | -2.88291 | 33913 ft | 495 kts | 355° |
| 2026-04-29 19:35 | 42.62113 | -2.88752 | 33899 ft | 494 kts | 355° |
| 2026-04-29 19:36 | 42.68970 | -2.89215 | 33895 ft | 495 kts | 356° |
| 2026-04-29 19:36 | 42.75872 | -2.89631 | 33893 ft | 495 kts | 356° |
| 2026-04-29 19:37 | 42.82731 | -2.90009 | 33892 ft | 496 kts | 356° |
| 2026-04-29 19:37 | 42.89594 | -2.90371 | 33885 ft | 494 kts | 356° |
| 2026-04-29 19:38 | 42.96457 | -2.90729 | 33881 ft | 493 kts | 357° |
| 2026-04-29 19:38 | 43.03304 | -2.91086 | 33872 ft | 494 kts | 357° |
| 2026-04-29 19:39 | 43.10131 | -2.91447 | 33868 ft | 493 kts | 357° |
| 2026-04-29 19:39 | 43.17003 | -2.91813 | 33869 ft | 495 kts | 356° |
| 2026-04-29 19:40 | 43.23854 | -2.92177 | 33869 ft | 493 kts | 357° |
| 2026-04-29 19:40 | 43.30729 | -2.92165 | 33862 ft | 493 kts | 4° |
| 2026-04-29 19:41 | 43.37523 | -2.90830 | 33860 ft | 495 kts | 11° |
| 2026-04-29 19:41 | 43.44208 | -2.88827 | 33850 ft | 493 kts | 13° |
| 2026-04-29 19:42 | 43.50883 | -2.86712 | 33842 ft | 493 kts | 13° |
| 2026-04-29 19:42 | 43.57568 | -2.84637 | 33838 ft | 493 kts | 13° |
| 2026-04-29 19:43 | 43.64264 | -2.82608 | 33837 ft | 493 kts | 13° |
| 2026-04-29 19:43 | 43.70979 | -2.80585 | 33833 ft | 492 kts | 13° |
| 2026-04-29 19:44 | 43.77623 | -2.78459 | 33837 ft | 493 kts | 14° |
| 2026-04-29 19:44 | 43.84245 | -2.76266 | 33834 ft | 490 kts | 14° |
| 2026-04-29 19:45 | 43.90916 | -2.74049 | 33832 ft | 491 kts | 14° |
| 2026-04-29 19:45 | 43.97576 | -2.72185 | 33833 ft | 492 kts | 9° |
| 2026-04-29 19:46 | 44.04317 | -2.70763 | 33832 ft | 491 kts | 8° |
| 2026-04-29 19:46 | 44.11068 | -2.69399 | 33832 ft | 491 kts | 9° |
| 2026-04-29 19:47 | 44.17835 | -2.67975 | 33831 ft | 492 kts | 9° |
| 2026-04-29 19:47 | 44.24594 | -2.66503 | 33831 ft | 492 kts | 9° |
| 2026-04-29 19:48 | 44.31329 | -2.65009 | 33842 ft | 493 kts | 9° |
| 2026-04-29 19:48 | 44.38058 | -2.63506 | 33839 ft | 492 kts | 9° |
| 2026-04-29 19:49 | 44.44837 | -2.61987 | 33845 ft | 492 kts | 9° |
| 2026-04-29 19:49 | 44.51579 | -2.60473 | 33849 ft | 492 kts | 9° |
| 2026-04-29 19:50 | 44.58337 | -2.58954 | 33850 ft | 492 kts | 9° |
| 2026-04-29 19:50 | 44.65098 | -2.57427 | 33852 ft | 492 kts | 10° |
| 2026-04-29 19:51 | 44.71825 | -2.55905 | 33851 ft | 492 kts | 10° |
| 2026-04-29 19:51 | 44.78592 | -2.54372 | 33850 ft | 492 kts | 10° |
| 2026-04-29 19:52 | 44.85324 | -2.52843 | 33851 ft | 493 kts | 10° |
| 2026-04-29 19:52 | 44.92102 | -2.51298 | 33855 ft | 493 kts | 10° |
| 2026-04-29 19:53 | 44.98859 | -2.49756 | 33857 ft | 493 kts | 10° |
| 2026-04-29 19:53 | 45.05609 | -2.48212 | 33856 ft | 492 kts | 10° |
| 2026-04-29 19:54 | 45.15716 | -2.45896 | 33866 ft | 492 kts | 10° |
| 2026-04-29 19:54 | 45.22444 | -2.44348 | 33863 ft | 491 kts | 10° |
| 2026-04-29 19:55 | 45.29195 | -2.42790 | 33865 ft | 492 kts | 10° |
| 2026-04-29 19:55 | 45.35918 | -2.41098 | 33869 ft | 491 kts | 12° |
| 2026-04-29 19:56 | 45.42614 | -2.39458 | 33867 ft | 492 kts | 10° |
| 2026-04-29 19:56 | 45.49384 | -2.37918 | 33855 ft | 492 kts | 10° |
| 2026-04-29 19:57 | 45.56103 | -2.36384 | 33863 ft | 491 kts | 10° |
| 2026-04-29 19:57 | 45.62825 | -2.34823 | 33870 ft | 491 kts | 11° |
| 2026-04-29 19:58 | 45.69559 | -2.33240 | 33869 ft | 490 kts | 11° |
| 2026-04-29 19:58 | 45.76267 | -2.31653 | 33875 ft | 489 kts | 11° |
| 2026-04-29 19:59 | 45.82981 | -2.30055 | 33877 ft | 490 kts | 11° |
| 2026-04-29 19:59 | 45.89693 | -2.28453 | 33877 ft | 490 kts | 11° |
| 2026-04-29 20:00 | 45.96368 | -2.26858 | 33880 ft | 489 kts | 11° |
| 2026-04-29 20:00 | 46.03113 | -2.25242 | 33888 ft | 490 kts | 11° |
| 2026-04-29 20:01 | 46.09820 | -2.23630 | 33884 ft | 489 kts | 11° |
| 2026-04-29 20:01 | 46.16542 | -2.22011 | 33887 ft | 488 kts | 11° |
| 2026-04-29 20:02 | 46.23221 | -2.20397 | 33898 ft | 490 kts | 11° |
| 2026-04-29 20:02 | 46.28825 | -2.19040 | 33886 ft | 491 kts | 11° |
| 2026-04-29 20:03 | 46.36631 | -2.17145 | 33895 ft | 489 kts | 11° |
| 2026-04-29 20:03 | 46.43375 | -2.15504 | 33900 ft | 491 kts | 11° |
| 2026-04-29 20:04 | 46.50064 | -2.13871 | 33903 ft | 490 kts | 11° |
| 2026-04-29 20:04 | 46.56782 | -2.12227 | 33903 ft | 492 kts | 11° |
| 2026-04-29 20:05 | 46.63509 | -2.10580 | 33909 ft | 491 kts | 11° |
| 2026-04-29 20:05 | 46.70269 | -2.08920 | 33916 ft | 492 kts | 11° |
| 2026-04-29 20:06 | 46.76979 | -2.07268 | 33915 ft | 492 kts | 11° |
| 2026-04-29 20:06 | 46.83706 | -2.05608 | 33922 ft | 492 kts | 11° |
| 2026-04-29 20:07 | 46.90454 | -2.03935 | 33923 ft | 491 kts | 11° |
| 2026-04-29 20:07 | 46.97161 | -2.02270 | 33926 ft | 493 kts | 11° |
| 2026-04-29 20:08 | 47.02792 | -2.00869 | 33920 ft | 492 kts | 11° |
| 2026-04-29 20:08 | 47.10630 | -1.98927 | 33912 ft | 492 kts | 11° |
| 2026-04-29 20:09 | 47.17410 | -1.97248 | 33914 ft | 492 kts | 11° |
| 2026-04-29 20:09 | 47.24163 | -1.95568 | 33918 ft | 491 kts | 11° |
| 2026-04-29 20:10 | 47.30853 | -1.93836 | 33921 ft | 490 kts | 13° |
| 2026-04-29 20:10 | 47.37395 | -1.91133 | 33963 ft | 489 kts | 23° |
| 2026-04-29 20:11 | 47.40530 | -1.89199 | 34232 ft | 488 kts | 27° |
| 2026-04-29 20:11 | 47.43575 | -1.87083 | 34585 ft | 487 kts | 28° |
| 2026-04-29 20:11 | 47.46594 | -1.84873 | 34892 ft | 485 kts | 29° |
| 2026-04-29 20:11 | 47.49619 | -1.82613 | 35137 ft | 485 kts | 29° |
| 2026-04-29 20:12 | 47.52597 | -1.80383 | 35397 ft | 484 kts | 29° |
| 2026-04-29 20:12 | 47.55571 | -1.78165 | 35695 ft | 482 kts | 29° |
| 2026-04-29 20:12 | 47.58572 | -1.75942 | 35908 ft | 481 kts | 28° |
| 2026-04-29 20:12 | 47.61577 | -1.73727 | 35934 ft | 482 kts | 28° |
| 2026-04-29 20:13 | 47.67570 | -1.69339 | 35941 ft | 479 kts | 28° |
| 2026-04-29 20:13 | 47.73507 | -1.65007 | 35944 ft | 480 kts | 28° |
| 2026-04-29 20:14 | 47.79490 | -1.60643 | 35953 ft | 479 kts | 28° |
| 2026-04-29 20:14 | 47.85424 | -1.56303 | 35966 ft | 479 kts | 27° |
| 2026-04-29 20:15 | 47.91400 | -1.51924 | 35970 ft | 478 kts | 27° |
| 2026-04-29 20:15 | 47.97362 | -1.47548 | 35969 ft | 479 kts | 27° |
| 2026-04-29 20:16 | 48.03595 | -1.44165 | 35978 ft | 480 kts | 10° |
| 2026-04-29 20:16 | 48.10231 | -1.43707 | 35988 ft | 480 kts | 358° |
| 2026-04-29 20:17 | 48.16911 | -1.44225 | 35982 ft | 481 kts | 355° |
| 2026-04-29 20:17 | 48.23532 | -1.44882 | 35977 ft | 479 kts | 355° |
| 2026-04-29 20:18 | 48.30155 | -1.45471 | 35977 ft | 480 kts | 356° |
| 2026-04-29 20:18 | 48.36821 | -1.45999 | 35983 ft | 478 kts | 356° |
| 2026-04-29 20:19 | 48.43459 | -1.46494 | 35978 ft | 480 kts | 356° |
| 2026-04-29 20:19 | 48.50070 | -1.46978 | 35992 ft | 477 kts | 356° |
| 2026-04-29 20:20 | 48.56717 | -1.47459 | 35995 ft | 477 kts | 356° |
| 2026-04-29 20:20 | 48.63319 | -1.47939 | 35994 ft | 477 kts | 356° |
| 2026-04-29 20:21 | 48.69933 | -1.48423 | 36004 ft | 477 kts | 356° |
| 2026-04-29 20:21 | 48.76564 | -1.48910 | 36009 ft | 477 kts | 356° |
| 2026-04-29 20:22 | 48.83185 | -1.49398 | 36015 ft | 476 kts | 356° |
| 2026-04-29 20:22 | 48.89755 | -1.49837 | 36017 ft | 475 kts | 359° |
| 2026-04-29 20:23 | 48.96354 | -1.49483 | 36024 ft | 475 kts | 4° |
| 2026-04-29 20:23 | 49.02947 | -1.48639 | 36014 ft | 475 kts | 5° |
| 2026-04-29 20:24 | 49.09475 | -1.47745 | 36022 ft | 473 kts | 5° |
| 2026-04-29 20:24 | 49.16051 | -1.46883 | 36036 ft | 473 kts | 5° |
| 2026-04-29 20:25 | 49.22599 | -1.46062 | 36030 ft | 474 kts | 4° |
| 2026-04-29 20:25 | 49.29143 | -1.45265 | 36034 ft | 472 kts | 4° |
| 2026-04-29 20:26 | 49.35661 | -1.44480 | 36049 ft | 471 kts | 5° |
| 2026-04-29 20:26 | 49.42157 | -1.43698 | 36054 ft | 470 kts | 5° |
| 2026-04-29 20:27 | 49.47615 | -1.43042 | 36059 ft | 469 kts | 5° |
| 2026-04-29 20:27 | 49.55156 | -1.42133 | 36074 ft | 468 kts | 5° |
| 2026-04-29 20:28 | 49.61644 | -1.41368 | 36083 ft | 468 kts | 4° |
| 2026-04-29 20:28 | 49.68130 | -1.40766 | 36083 ft | 467 kts | 3° |
| 2026-04-29 20:29 | 49.74594 | -1.40230 | 36085 ft | 466 kts | 3° |
| 2026-04-29 20:29 | 49.81021 | -1.39691 | 36088 ft | 465 kts | 3° |
| 2026-04-29 20:30 | 49.87442 | -1.39137 | 36094 ft | 464 kts | 3° |
| 2026-04-29 20:30 | 49.93908 | -1.38569 | 36095 ft | 464 kts | 4° |
| 2026-04-29 20:31 | 50.00288 | -1.37963 | 36101 ft | 463 kts | 5° |
| 2026-04-29 20:31 | 50.06657 | -1.36684 | 36116 ft | 462 kts | 9° |
| 2026-04-29 20:32 | 50.13020 | -1.35024 | 36114 ft | 463 kts | 10° |
| 2026-04-29 20:32 | 50.19358 | -1.33341 | 36127 ft | 462 kts | 11° |
| 2026-04-29 20:33 | 50.25662 | -1.31702 | 36125 ft | 462 kts | 11° |
| 2026-04-29 20:33 | 50.32029 | -1.30073 | 36130 ft | 461 kts | 10° |
| 2026-04-29 20:34 | 50.38351 | -1.28471 | 36134 ft | 462 kts | 10° |
| 2026-04-29 20:34 | 50.44644 | -1.26873 | 36130 ft | 462 kts | 11° |
| 2026-04-29 20:35 | 50.50857 | -1.24361 | 36143 ft | 458 kts | 24° |
| 2026-04-29 20:35 | 50.56433 | -1.19772 | 36153 ft | 456 kts | 33° |
| 2026-04-29 20:36 | 50.61766 | -1.14443 | 36153 ft | 455 kts | 35° |
| 2026-04-29 20:36 | 50.67025 | -1.09042 | 36165 ft | 454 kts | 35° |
| 2026-04-29 20:37 | 50.72340 | -1.03623 | 36168 ft | 455 kts | 34° |
| 2026-04-29 20:37 | 50.77641 | -0.98259 | 36175 ft | 455 kts | 34° |
| 2026-04-29 20:38 | 50.82879 | -0.92782 | 36172 ft | 453 kts | 38° |
| 2026-04-29 20:38 | 50.87787 | -0.86551 | 36182 ft | 451 kts | 42° |
| 2026-04-29 20:39 | 50.92502 | -0.80117 | 36190 ft | 449 kts | 43° |
| 2026-04-29 20:39 | 50.97201 | -0.73679 | 36197 ft | 448 kts | 42° |
| 2026-04-29 20:40 | 51.01963 | -0.67219 | 36206 ft | 449 kts | 41° |
| 2026-04-29 20:40 | 51.06942 | -0.61317 | 36212 ft | 453 kts | 33° |
| 2026-04-29 20:41 | 51.12503 | -0.56612 | 36217 ft | 453 kts | 27° |
| 2026-04-29 20:41 | 51.18175 | -0.52352 | 36222 ft | 453 kts | 27° |
| 2026-04-29 20:42 | 51.23883 | -0.48187 | 36226 ft | 454 kts | 24° |
| 2026-04-29 20:42 | 51.29803 | -0.44742 | 36235 ft | 455 kts | 21° |
| 2026-04-29 20:43 | 51.35651 | -0.40936 | 36154 ft | 453 kts | 26° |
| 2026-04-29 20:43 | 51.41317 | -0.36673 | 36241 ft | 454 kts | 28° |